Time;durP1;ratioP1;P1;durP2;ratioP2;P2;SDS_P1;SDS_P2;PMS_P1;PMS_P2;Temp;Humidity;BMP_temperature;BMP_pressure;BME280_temperature;BME280_humidity;BME280_pressure;Samples;Min_cycle;Max_cycle;Signal;HPM_P1;HPM_P2
2021/05/20 00:00:18;;;;;;;;;;;;;;;;;;5071294;28;19946;-67
2021/05/20 00:02:44;;;;;;;;;;;;;;;;;;5080805;28;19924;-67
2021/05/20 00:05:11;;;;;;;;;;;;;;;;;;5089093;28;19931;-67
2021/05/20 00:07:37;;;;;;;;;;;;;;;;;;5076186;28;19928;-67
2021/05/20 00:10:04;;;;;;;;;;;;;;;;;;5081612;28;19928;-67
2021/05/20 00:12:30;;;;;;;;;;;;;;;;;;5072813;28;19928;-67
2021/05/20 00:14:57;;;;;;;;;;;;;;;;;;5074372;28;20316;-67
2021/05/20 00:17:23;;;;;;;;;;;;;;;;;;5080086;28;19930;-66
2021/05/20 00:19:50;;;;;;;;;;;;;;;;;;5079049;28;19924;-66
2021/05/20 00:22:16;;;;;;;;;;;;;;;;;;5082982;28;19924;-67
2021/05/20 00:24:43;;;;;;;;;;;;;;;;;;5079796;28;20440;-66
2021/05/20 00:27:09;;;;;;;;;;;;;;;;;;5082560;28;20291;-67
2021/05/20 00:29:36;;;;;;;;;;;;;;;;;;5080901;28;19925;-66
2021/05/20 00:32:02;;;;;;;;;;;;;;;;;;5074909;28;19932;-66
2021/05/20 00:34:29;;;;;;;;;;;;;;;;;;5087782;28;20384;-68
2021/05/20 00:36:55;;;;;;;;;;;;;;;;;;5077652;28;19970;-66
2021/05/20 00:39:22;;;;;;;;;;;;;;;;;;5086515;28;19931;-67
2021/05/20 00:41:48;;;;;;;;;;;;;;;;;;5087121;28;20015;-66
2021/05/20 00:44:15;;;;;;;;;;;;;;;;;;5085760;28;19932;-67
2021/05/20 00:46:41;;;;;;;;;;;;;;;;;;5078160;28;20430;-68
2021/05/20 00:49:10;;;;;;;;;;;;;;;;;;5088261;28;19924;-66
2021/05/20 00:51:37;;;;;;;;;;;;;;;;;;5080112;28;20030;-67
2021/05/20 00:54:03;;;;;;;;;;;;;;;;;;5081335;28;19924;-66
2021/05/20 00:56:29;;;;;;;;;;;;;;;;;;5072346;28;19924;-66
2021/05/20 00:58:56;;;;;;;;;;;;;;;;;;5087094;28;19925;-67
2021/05/20 01:01:22;;;;;;;;;;;;;;;;;;5078642;28;19934;-66
2021/05/20 01:03:49;;;;;;;;;;;;;;;;;;5080752;28;19977;-66
2021/05/20 01:06:15;;;;;;;;;;;;;;;;;;5081704;28;20023;-66
2021/05/20 01:08:42;;;;;;;;;;;;;;;;;;5071792;28;19931;-66
2021/05/20 01:11:09;;;;;;;;;;;;;;;;;;5086133;28;19928;-67
2021/05/20 01:13:36;;;;;;;;;;;;;;;;;;5085418;28;19931;-67
2021/05/20 01:16:03;;;;;;;;;;;;;;;;;;5079682;28;19975;-66
2021/05/20 01:18:29;;;;;;;;;;;;;;;;;;5076643;28;19946;-66
2021/05/20 01:20:56;;;;;;;;;;;;;;;;;;5086769;28;19924;-67
2021/05/20 01:23:23;;;;;;;;;;;;;;;;;;5084501;28;20041;-67
2021/05/20 01:25:49;;;;;;;;;;;;;;;;;;5079299;28;19925;-66
2021/05/20 01:28:16;;;;;;;;;;;;;;;;;;5082206;28;19931;-66
2021/05/20 01:30:42;;;;;;;;;;;;;;;;;;5085071;28;20023;-66
2021/05/20 01:33:09;;;;;;;;;;;;;;;;;;5089057;28;19924;-66
2021/05/20 01:35:35;;;;;;;;;;;;;;;;;;5086853;28;20384;-67
2021/05/20 01:38:02;;;;;;;;;;;;;;;;;;5077155;28;19931;-67
2021/05/20 01:40:28;;;;;;;;;;;;;;;;;;5073925;28;20323;-66
2021/05/20 01:42:55;;;;;;;;;;;;;;;;;;5090353;28;19924;-68
2021/05/20 01:45:21;;;;;;;;;;;;;;;;;;5075886;28;20384;-67
2021/05/20 01:47:48;;;;;;;;;;;;;;;;;;5081081;28;19940;-66
2021/05/20 01:50:14;;;;;;;;;;;;;;;;;;5074973;28;19924;-67
2021/05/20 01:52:41;;;;;;;;;;;;;;;;;;5082152;28;19973;-67
2021/05/20 01:55:07;;;;;;;;;;;;;;;;;;5086394;28;20384;-68
2021/05/20 01:57:34;;;;;;;;;;;;;;;;;;5073460;28;20341;-66
2021/05/20 02:00:02;;;;;;;;;;;;;;;;;;5077735;28;20312;-66
2021/05/20 02:02:28;;;;;;;;;;;;;;;;;;5080764;28;19928;-66
2021/05/20 02:04:55;;;;;;;;;;;;;;;;;;5086063;28;19924;-66
2021/05/20 02:07:21;;;;;;;;;;;;;;;;;;5081066;28;20331;-66
2021/05/20 02:09:47;;;;;;;;;;;;;;;;;;5084236;28;20629;-65
2021/05/20 02:12:14;;;;;;;;;;;;;;;;;;5078720;28;20296;-66
2021/05/20 02:14:40;;;;;;;;;;;;;;;;;;5084524;28;19932;-66
2021/05/20 02:17:07;;;;;;;;;;;;;;;;;;5082144;28;19970;-66
2021/05/20 02:19:33;;;;;;;;;;;;;;;;;;5077442;28;19946;-66
2021/05/20 02:22:00;;;;;;;;;;;;;;;;;;5075431;28;19930;-66
2021/05/20 02:24:26;;;;;;;;;;;;;;;;;;5077901;28;19925;-66
2021/05/20 02:26:53;;;;;;;;;;;;;;;;;;5076250;28;21099;-67
2021/05/20 02:29:19;;;;;;;;;;;;;;;;;;5086169;28;19924;-67
2021/05/20 02:31:46;;;;;;;;;;;;;;;;;;5081644;28;19924;-67
2021/05/20 02:34:12;;;;;;;;;;;;;;;;;;5084905;28;19924;-67
2021/05/20 02:36:39;;;;;;;;;;;;;;;;;;5081465;28;19928;-67
2021/05/20 02:39:05;;;;;;;;;;;;;;;;;;5086979;28;19930;-66
2021/05/20 02:41:32;;;;;;;;;;;;;;;;;;5092100;28;20366;-66
2021/05/20 02:43:58;;;;;;;;;;;;;;;;;;5085758;28;19997;-65
2021/05/20 02:46:25;;;;;;;;;;;;;;;;;;5092404;28;19924;-66
2021/05/20 02:48:51;;;;;;;;;;;;;;;;;;5083194;28;19932;-66
2021/05/20 02:51:22;;;;;;;;;;;;;;;;;;5075569;28;19928;-66
2021/05/20 02:53:48;;;;;;;;;;;;;;;;;;5085880;28;20371;-66
2021/05/20 02:56:15;;;;;;;;;;;;;;;;;;5081900;28;19931;-66
2021/05/20 02:58:41;;;;;;;;;;;;;;;;;;5090567;28;19946;-66
2021/05/20 03:01:08;;;;;;;;;;;;;;;;;;5080436;28;19928;-66
2021/05/20 03:03:34;;;;;;;;;;;;;;;;;;5086484;28;19924;-68
2021/05/20 03:06:01;;;;;;;;;;;;;;;;;;5089114;28;20291;-68
2021/05/20 03:08:27;;;;;;;;;;;;;;;;;;5079746;28;19928;-67
2021/05/20 03:10:54;;;;;;;;;;;;;;;;;;5084349;28;20398;-67
2021/05/20 03:13:20;;;;;;;;;;;;;;;;;;5081369;28;20585;-67
2021/05/20 03:15:46;;;;;;;;;;;;;;;;;;5080961;28;19931;-67
2021/05/20 03:18:13;;;;;;;;;;;;;;;;;;5079854;28;19932;-67
2021/05/20 03:20:39;;;;;;;;;;;;;;;;;;5073011;28;20621;-67
2021/05/20 03:23:06;;;;;;;;;;;;;;;;;;5080400;28;19931;-68
2021/05/20 03:25:34;;;;;;;;;;;;;;;;;;5088228;28;20410;-67
2021/05/20 03:28:01;;;;;;;;;;;;;;;;;;5086633;28;19931;-67
2021/05/20 03:30:27;;;;;;;;;;;;;;;;;;5077473;28;20447;-67
2021/05/20 03:32:54;;;;;;;;;;;;;;;;;;5075320;28;20009;-67
2021/05/20 03:35:20;;;;;;;;;;;;;;;;;;5078688;28;19931;-68
2021/05/20 03:37:47;;;;;;;;;;;;;;;;;;5081562;28;20301;-67
2021/05/20 03:40:13;;;;;;;;;;;;;;;;;;5082200;28;19924;-67
2021/05/20 03:42:40;;;;;;;;;;;;;;;;;;5077545;28;19931;-67
2021/05/20 03:45:06;;;;;;;;;;;;;;;;;;5083251;28;19928;-68
2021/05/20 03:47:33;;;;;;;;;;;;;;;;;;5082428;28;19939;-68
2021/05/20 03:49:59;;;;;;;;;;;;;;;;;;5082604;28;20027;-68
2021/05/20 03:52:26;;;;;;;;;;;;;;;;;;5091126;28;19985;-67
2021/05/20 03:54:52;;;;;;;;;;;;;;;;;;5080802;28;20394;-68
2021/05/20 03:57:18;;;;;;;;;;;;;;;;;;5082075;28;20093;-68
2021/05/20 03:59:45;;;;;;;;;;;;;;;;;;5082553;28;19931;-68
2021/05/20 04:02:11;;;;;;;;;;;;;;;;;;5079292;28;19928;-68
2021/05/20 04:04:38;;;;;;;;;;;;;;;;;;5077366;28;19928;-68
2021/05/20 04:07:04;;;;;;;;;;;;;;;;;;5081901;28;20364;-68
2021/05/20 04:09:32;;;;;;;;;;;;;;;;;;5086513;28;19924;-67
2021/05/20 04:11:59;;;;;;;;;;;;;;;;;;5082498;28;19924;-65
2021/05/20 04:14:25;;;;;;;;;;;;;;;;;;5087588;28;19928;-66
2021/05/20 04:16:52;;;;;;;;;;;;;;;;;;5080758;28;19933;-67
2021/05/20 04:19:18;;;;;;;;;;;;;;;;;;5084690;28;19932;-66
2021/05/20 04:21:45;;;;;;;;;;;;;;;;;;5084838;28;19931;-67
2021/05/20 04:24:11;;;;;;;;;;;;;;;;;;5085894;28;19924;-66
2021/05/20 04:26:39;;;;;;;;;;;;;;;;;;5083339;28;20410;-67
2021/05/20 04:29:05;;;;;;;;;;;;;;;;;;5080237;28;19963;-67
2021/05/20 04:31:32;;;;;;;;;;;;;;;;;;5074017;28;19931;-66
2021/05/20 04:33:58;;;;;;;;;;;;;;;;;;5078645;28;20113;-68
2021/05/20 04:36:25;;;;;;;;;;;;;;;;;;5080379;28;20304;-68
2021/05/20 04:38:51;;;;;;;;;;;;;;;;;;5074615;28;19932;-66
2021/05/20 04:41:18;;;;;;;;;;;;;;;;;;5075853;28;20325;-65
2021/05/20 04:43:44;;;;;;;;;;;;;;;;;;5087098;28;19924;-67
2021/05/20 04:46:11;;;;;;;;;;;;;;;;;;5082355;28;19924;-66
2021/05/20 04:48:37;;;;;;;;;;;;;;;;;;5072110;28;20028;-66
2021/05/20 04:51:04;;;;;;;;;;;;;;;;;;5076969;28;19924;-67
2021/05/20 04:53:31;;;;;;;;;;;;;;;;;;5079203;28;20331;-67
2021/05/20 04:55:58;;;;;;;;;;;;;;;;;;5078406;28;19932;-67
2021/05/20 04:58:24;;;;;;;;;;;;;;;;;;5075048;28;19978;-66
2021/05/20 05:00:51;;;;;;;;;;;;;;;;;;5080260;28;20014;-66
2021/05/20 05:03:17;;;;;;;;;;;;;;;;;;5073311;28;19951;-67
2021/05/20 05:05:44;;;;;;;;;;;;;;;;;;5079539;28;19925;-68
2021/05/20 05:08:10;;;;;;;;;;;;;;;;;;5085018;28;20034;-67
2021/05/20 05:10:37;;;;;;;;;;;;;;;;;;5076191;28;19924;-67
2021/05/20 05:13:03;;;;;;;;;;;;;;;;;;5074260;28;19924;-67
2021/05/20 05:15:30;;;;;;;;;;;;;;;;;;5078445;28;20035;-67
2021/05/20 05:17:56;;;;;;;;;;;;;;;;;;5074556;28;20051;-68
2021/05/20 05:20:23;;;;;;;;;;;;;;;;;;5079524;28;19925;-67
2021/05/20 05:22:49;;;;;;;;;;;;;;;;;;5081511;28;19932;-67
2021/05/20 05:25:16;;;;;;;;;;;;;;;;;;5078377;28;19993;-67
2021/05/20 05:27:42;;;;;;;;;;;;;;;;;;5084444;28;19967;-67
2021/05/20 05:30:09;;;;;;;;;;;;;;;;;;5080787;28;19928;-68
2021/05/20 05:32:35;;;;;;;;;;;;;;;;;;5079007;28;20323;-67
2021/05/20 05:35:02;;;;;;;;;;;;;;;;;;5076077;28;19928;-67
2021/05/20 05:37:28;;;;;;;;;;;;;;;;;;5079286;28;19928;-68
2021/05/20 05:39:55;;;;;;;;;;;;;;;;;;5078403;28;19924;-68
2021/05/20 05:42:21;;;;;;;;;;;;;;;;;;5083002;28;19924;-68
2021/05/20 05:44:48;;;;;;;;;;;;;;;;;;5083761;28;20423;-67
2021/05/20 05:47:14;;;;;;;;;;;;;;;;;;5079039;28;20095;-67
2021/05/20 05:49:43;;;;;;;;;;;;;;;;;;5086508;28;19924;-68
2021/05/20 05:52:16;;;;;;;;;;;;;;;;;;5081886;28;21477;-67
2021/05/20 05:54:43;;;;;;;;;;;;;;;;;;5080039;28;20331;-68
2021/05/20 05:57:09;;;;;;;;;;;;;;;;;;5082171;28;19925;-67
2021/05/20 05:59:36;;;;;;;;;;;;;;;;;;5077521;28;19983;-67
2021/05/20 06:02:02;;;;;;;;;;;;;;;;;;5085596;28;19977;-67
2021/05/20 06:04:30;;;;;;;;;;;;;;;;;;5084513;28;20395;-68
2021/05/20 06:06:57;;;;;;;;;;;;;;;;;;5084070;28;19931;-67
2021/05/20 06:09:23;;;;;;;;;;;;;;;;;;5075577;28;19930;-68
2021/05/20 06:11:50;;;;;;;;;;;;;;;;;;5091782;28;19931;-68
2021/05/20 06:14:16;;;;;;;;;;;;;;;;;;5086931;28;19924;-68
2021/05/20 06:16:42;;;;;;;;;;;;;;;;;;5087006;28;20303;-67
2021/05/20 06:19:09;;;;;;;;;;;;;;;;;;5076879;28;20402;-68
2021/05/20 06:21:35;;;;;;;;;;;;;;;;;;5083894;28;20381;-68
2021/05/20 06:24:02;;;;;;;;;;;;;;;;;;5088866;28;20373;-68
2021/05/20 06:26:28;;;;;;;;;;;;;;;;;;5086125;28;20069;-66
2021/05/20 06:28:55;;;;;;;;;;;;;;;;;;5082401;28;19935;-66
2021/05/20 06:31:21;;;;;;;;;;;;;;;;;;5072931;28;19925;-67
2021/05/20 06:33:48;;;;;;;;;;;;;;;;;;5079699;28;20034;-66
2021/05/20 06:36:14;;;;;;;;;;;;;;;;;;5083329;28;19925;-66
2021/05/20 06:38:41;;;;;;;;;;;;;;;;;;5080061;28;20384;-66
2021/05/20 06:41:09;;;;;;;;;;;;;;;;;;5076456;28;19932;-67
2021/05/20 06:43:35;;;;;;;;;;;;;;;;;;5082208;28;19936;-67
2021/05/20 06:46:02;;;;;;;;;;;;;;;;;;5079987;28;20301;-67
2021/05/20 06:48:28;;;;;;;;;;;;;;;;;;5078116;28;19924;-67
2021/05/20 06:50:55;;;;;;;;;;;;;;;;;;5083308;28;19928;-67
2021/05/20 06:53:24;;;;;;;;;;;;;;;;;;5085580;28;19924;-67
2021/05/20 06:55:52;;;;;;;;;;;;;;;;;;5084295;28;20200;-67
2021/05/20 07:01:03;;;;;;;;;;;;;;;;;;5084001;28;19923;-67
2021/05/20 07:03:30;;;;;;;;;;;;;;;;;;5083083;28;19932;-66
2021/05/20 07:05:56;;;;;;;;;;;;;;;;;;5079445;28;19947;-66
2021/05/20 07:08:23;;;;;;;;;;;;;;;;;;5084658;28;19951;-67
2021/05/20 07:10:49;;;;;;;;;;;;;;;;;;5084029;28;19931;-66
2021/05/20 07:13:16;;;;;;;;;;;;;;;;;;5083301;28;19946;-66
2021/05/20 07:15:42;;;;;;;;;;;;;;;;;;5082818;28;20276;-67
2021/05/20 07:18:09;;;;;;;;;;;;;;;;;;5082645;28;20285;-66
2021/05/20 07:20:35;;;;;;;;;;;;;;;;;;5081743;28;19924;-67
2021/05/20 07:23:02;;;;;;;;;;;;;;;;;;5082621;28;20296;-67
2021/05/20 07:25:28;;;;;;;;;;;;;;;;;;5082133;28;19924;-67
2021/05/20 07:27:55;;;;;;;;;;;;;;;;;;5083715;28;20022;-66
2021/05/20 07:30:21;;;;;;;;;;;;;;;;;;5077003;28;19969;-67
2021/05/20 07:32:48;;;;;;;;;;;;;;;;;;5082057;28;19924;-66
2021/05/20 07:35:14;;;;;;;;;;;;;;;;;;5080686;28;19924;-67
2021/05/20 07:37:41;;;;;;;;;;;;;;;;;;5082968;28;19930;-66
2021/05/20 07:40:07;;;;;;;;;;;;;;;;;;5080184;28;19933;-67
2021/05/20 07:42:34;;;;;;;;;;;;;;;;;;5073868;28;19946;-67
2021/05/20 07:45:00;;;;;;;;;;;;;;;;;;5081599;28;19930;-66
2021/05/20 07:47:27;;;;;;;;;;;;;;;;;;5082135;28;19959;-66
2021/05/20 07:49:53;;;;;;;;;;;;;;;;;;5078391;28;19931;-67
2021/05/20 07:52:20;;;;;;;;;;;;;;;;;;5081344;28;19963;-66
2021/05/20 07:54:46;;;;;;;;;;;;;;;;;;5079693;28;19972;-66
2021/05/20 07:57:13;;;;;;;;;;;;;;;;;;5079802;28;19925;-66
2021/05/20 07:59:39;;;;;;;;;;;;;;;;;;5081319;28;20680;-66
2021/05/20 08:02:11;;;;;;;;;;;;;;;;;;5084208;28;19930;-66
2021/05/20 08:04:39;;;;;;;;;;;;;;;;;;5077426;28;19974;-66
2021/05/20 08:07:11;;;;;;;;;;;;;;;;;;5084223;28;19979;-66
2021/05/20 08:09:39;;;;;;;;;;;;;;;;;;5074970;28;19932;-67
2021/05/20 08:12:07;;;;;;;;;;;;;;;;;;5078314;28;19935;-66
2021/05/20 08:14:34;;;;;;;;;;;;;;;;;;5083367;28;20011;-66
2021/05/20 08:17:00;;;;;;;;;;;;;;;;;;5081962;28;20032;-67
2021/05/20 08:19:27;;;;;;;;;;;;;;;;;;5080087;28;19924;-67
2021/05/20 08:21:53;;;;;;;;;;;;;;;;;;5081581;28;19930;-66
2021/05/20 08:24:20;;;;;;;;;;;;;;;;;;5081283;28;19951;-66
2021/05/20 08:26:46;;;;;;;;;;;;;;;;;;5079602;28;20364;-66
2021/05/20 08:29:13;;;;;;;;;;;;;;;;;;5084030;28;19924;-66
2021/05/20 08:31:39;;;;;;;;;;;;;;;;;;5083114;28;20303;-67
2021/05/20 08:34:06;;;;;;;;;;;;;;;;;;5086693;28;20312;-66
2021/05/20 08:36:33;;;;;;;;;;;;;;;;;;5075399;28;20015;-66
2021/05/20 08:39:00;;;;;;;;;;;;;;;;;;5080402;28;19936;-66
2021/05/20 08:41:28;;;;;;;;;;;;;;;;;;5075978;28;20387;-66
2021/05/20 08:43:54;;;;;;;;;;;;;;;;;;5074304;28;20288;-66
2021/05/20 08:46:21;;;;;;;;;;;;;;;;;;5084098;28;19924;-66
2021/05/20 08:48:47;;;;;;;;;;;;;;;;;;5072515;28;20407;-65
2021/05/20 08:51:15;;;;;;;;;;;;;;;;;;5078486;28;20277;-66
2021/05/20 08:53:42;;;;;;;;;;;;;;;;;;5079427;28;20365;-67
2021/05/20 08:56:08;;;;;;;;;;;;;;;;;;5087057;28;19925;-68
2021/05/20 08:58:35;;;;;;;;;;;;;;;;;;5086311;28;19980;-68
2021/05/20 09:01:01;;;;;;;;;;;;;;;;;;5079561;28;20027;-65
2021/05/20 09:03:29;;;;;;;;;;;;;;;;;;5086995;28;19928;-65
2021/05/20 09:05:56;;;;;;;;;;;;;;;;;;5081715;28;19924;-66
2021/05/20 09:08:28;;;;;;;;;;;;;;;;;;5070491;28;19936;-66
2021/05/20 09:10:55;;;;;;;;;;;;;;;;;;5079413;28;19924;-65
2021/05/20 09:13:21;;;;;;;;;;;;;;;;;;5077792;28;19924;-65
2021/05/20 09:15:48;;;;;;;;;;;;;;;;;;5075733;28;19932;-66
2021/05/20 09:18:14;;;;;;;;;;;;;;;;;;5079143;28;20467;-65
2021/05/20 09:20:41;;;;;;;;;;;;;;;;;;5083270;28;19924;-65
2021/05/20 09:23:07;;;;;;;;;;;;;;;;;;5078943;28;20380;-65
2021/05/20 09:25:34;;;;;;;;;;;;;;;;;;5079010;28;19924;-65
2021/05/20 09:28:00;;;;;;;;;;;;;;;;;;5090387;28;19946;-65
2021/05/20 09:30:27;;;;;;;;;;;;;;;;;;5082231;22;20219;-72
2021/05/20 09:32:54;;;;;;;;;;;;;;;;;;5051212;28;19924;-72
2021/05/20 09:35:21;;;;;;;;;;;;;;;;;;5050085;28;20011;-71
2021/05/20 09:37:47;;;;;;;;;;;;;;;;;;5049873;28;19932;-71
2021/05/20 09:40:14;;;;;;;;;;;;;;;;;;5044549;28;19928;-71
2021/05/20 09:42:40;;;;;;;;;;;;;;;;;;5051488;28;19928;-71
2021/05/20 09:45:07;;;;;;;;;;;;;;;;;;5048871;28;20376;-71
2021/05/20 09:47:33;;;;;;;;;;;;;;;;;;5049719;28;20052;-71
2021/05/20 09:50:00;;;;;;;;;;;;;;;;;;5048052;28;20097;-70
2021/05/20 09:52:26;;;;;;;;;;;;;;;;;;5048077;28;19931;-70
2021/05/20 09:54:53;;;;;;;;;;;;;;;;;;5042527;28;19925;-70
2021/05/20 09:57:19;;;;;;;;;;;;;;;;;;5045907;28;19929;-70
2021/05/20 09:59:46;;;;;;;;;;;;;;;;;;5043664;28;20921;-73
2021/05/20 10:02:12;;;;;;;;;;;;;;;;;;5049712;28;20045;-70
2021/05/20 10:04:39;;;;;;;;;;;;;;;;;;5047296;28;19929;-70
2021/05/20 10:07:05;;;;;;;;;;;;;;;;;;5044663;28;19931;-71
2021/05/20 10:09:32;;;;;;;;;;;;;;;;;;5042684;28;19952;-71
2021/05/20 10:12:02;;;;;;;;;;;;;;;;;;5043580;28;19943;-70
2021/05/20 10:14:28;;;;;;;;;;;;;;;;;;5044679;28;19978;-73
2021/05/20 10:16:55;;;;;;;;;;;;;;;;;;5046154;28;20362;-69
2021/05/20 10:19:21;;;;;;;;;;;;;;;;;;5041195;28;19928;-69
2021/05/20 10:21:48;;;;;;;;;;;;;;;;;;5044975;28;19951;-69
2021/05/20 10:24:14;;;;;;;;;;;;;;;;;;5042553;28;19925;-69
2021/05/20 10:26:41;;;;;;;;;;;;;;;;;;5043370;28;20411;-69
2021/05/20 10:29:08;;;;;;;;;;;;;;;;;;5048305;28;20020;-70
2021/05/20 10:31:34;;;;;;;;;;;;;;;;;;5040420;28;20464;-70
2021/05/20 10:34:01;;;;;;;;;;;;;;;;;;5043792;28;19967;-72
2021/05/20 10:36:29;;;;;;;;;;;;;;;;;;5040488;28;19979;-72
2021/05/20 10:38:55;;;;;;;;;;;;;;;;;;5043172;28;19932;-72
2021/05/20 10:41:23;;;;;;;;;;;;;;;;;;5043302;28;19935;-71
2021/05/20 10:43:49;;;;;;;;;;;;;;;;;;5043457;28;19965;-70
2021/05/20 10:46:16;;;;;;;;;;;;;;;;;;5038251;28;20389;-72
2021/05/20 10:48:42;;;;;;;;;;;;;;;;;;5040436;28;19929;-71
2021/05/20 10:51:09;;;;;;;;;;;;;;;;;;5042608;28;20304;-70
2021/05/20 10:53:36;;;;;;;;;;;;;;;;;;5045510;28;19932;-72
2021/05/20 10:56:02;;;;;;;;;;;;;;;;;;5043422;28;19925;-69
2021/05/20 10:58:29;;;;;;;;;;;;;;;;;;5043092;28;20023;-71
2021/05/20 11:00:55;;;;;;;;;;;;;;;;;;5038338;28;20031;-72
2021/05/20 11:03:22;;;;;;;;;;;;;;;;;;5042301;28;20024;-72
2021/05/20 11:05:48;;;;;;;;;;;;;;;;;;5054826;28;19928;-71
2021/05/20 11:08:14;;;;;;;;;;;;;;;;;;5053292;28;20395;-72
2021/05/20 11:10:41;;;;;;;;;;;;;;;;;;5047064;28;19925;-72
2021/05/20 11:13:07;;;;;;;;;;;;;;;;;;5044425;28;19964;-73
2021/05/20 11:15:34;;;;;;;;;;;;;;;;;;5039035;28;20251;-72
2021/05/20 11:18:00;;;;;;;;;;;;;;;;;;5047466;28;19926;-72
2021/05/20 11:20:26;;;;;;;;;;;;;;;;;;5044497;28;19931;-72
2021/05/20 11:22:53;;;;;;;;;;;;;;;;;;5046148;28;20024;-72
2021/05/20 11:25:19;;;;;;;;;;;;;;;;;;5057379;28;20023;-71
2021/05/20 11:27:46;;;;;;;;;;;;;;;;;;5043834;28;20344;-73
2021/05/20 11:30:12;;;;;;;;;;;;;;;;;;5043353;28;19928;-73
2021/05/20 11:32:39;;;;;;;;;;;;;;;;;;5040637;28;19935;-72
2021/05/20 11:35:16;;;;;;;;;;;;;;;;;;5045354;28;19925;-71
2021/05/20 11:37:42;;;;;;;;;;;;;;;;;;5042059;28;19986;-72
2021/05/20 11:40:09;;;;;;;;;;;;;;;;;;5038587;28;19933;-71
2021/05/20 11:42:35;;;;;;;;;;;;;;;;;;5046691;28;19940;-70
2021/05/20 11:45:02;;;;;;;;;;;;;;;;;;5040777;28;19995;-72
2021/05/20 11:47:32;;;;;;;;;;;;;;;;;;5038353;28;20337;-71
2021/05/20 11:49:58;;;;;;;;;;;;;;;;;;5038532;28;19936;-74
2021/05/20 11:52:25;;;;;;;;;;;;;;;;;;5044754;28;19937;-73
2021/05/20 11:54:51;;;;;;;;;;;;;;;;;;5045598;28;19933;-72
2021/05/20 11:57:18;;;;;;;;;;;;;;;;;;5043213;28;19935;-70
2021/05/20 11:59:45;;;;;;;;;;;;;;;;;;5041910;28;19924;-68
2021/05/20 12:02:11;;;;;;;;;;;;;;;;;;5043217;28;19939;-69
2021/05/20 12:04:38;;;;;;;;;;;;;;;;;;5039707;28;20138;-68
2021/05/20 12:07:05;;;;;;;;;;;;;;;;;;5040834;28;19964;-69
2021/05/20 12:09:31;;;;;;;;;;;;;;;;;;5040901;28;20074;-67
2021/05/20 12:11:58;;;;;;;;;;;;;;;;;;5040626;28;19925;-69
2021/05/20 12:14:24;;;;;;;;;;;;;;;;;;5044688;28;20413;-70
2021/05/20 12:16:51;;;;;;;;;;;;;;;;;;5050584;28;19935;-70
2021/05/20 12:19:17;;;;;;;;;;;;;;;;;;5050692;28;19957;-70
2021/05/20 12:21:44;;;;;;;;;;;;;;;;;;5048377;28;19929;-69
2021/05/20 12:24:10;;;;;;;;;;;;;;;;;;5040851;28;19936;-70
2021/05/20 12:26:37;;;;;;;;;;;;;;;;;;5054516;28;20297;-70
2021/05/20 12:29:03;;;;;;;;;;;;;;;;;;5062102;28;19992;-70
2021/05/20 12:31:30;;;;;;;;;;;;;;;;;;5050974;28;19956;-70
2021/05/20 12:33:56;;;;;;;;;;;;;;;;;;5056818;28;20484;-70
2021/05/20 12:36:23;;;;;;;;;;;;;;;;;;5044299;28;19925;-71
2021/05/20 12:38:49;;;;;;;;;;;;;;;;;;5044001;28;20400;-71
2021/05/20 12:41:16;;;;;;;;;;;;;;;;;;5035722;28;20007;-71
2021/05/20 12:43:42;;;;;;;;;;;;;;;;;;5040686;28;19925;-69
2021/05/20 12:46:09;;;;;;;;;;;;;;;;;;5038639;28;19936;-70
2021/05/20 12:48:36;;;;;;;;;;;;;;;;;;5040184;28;20288;-70
2021/05/20 12:51:02;;;;;;;;;;;;;;;;;;5037543;28;19925;-70
2021/05/20 12:53:29;;;;;;;;;;;;;;;;;;5038093;28;19932;-71
2021/05/20 12:55:58;;;;;;;;;;;;;;;;;;5039832;28;19925;-71
2021/05/20 12:58:24;;;;;;;;;;;;;;;;;;5045824;28;19925;-71
2021/05/20 13:00:53;;;;;;;;;;;;;;;;;;5038314;28;19925;-72
2021/05/20 13:03:19;;;;;;;;;;;;;;;;;;5041248;28;19932;-71
2021/05/20 13:05:46;;;;;;;;;;;;;;;;;;5040464;28;20402;-73
2021/05/20 13:08:12;;;;;;;;;;;;;;;;;;5041486;28;19925;-72
2021/05/20 13:10:40;;;;;;;;;;;;;;;;;;5041305;28;21647;-72
2021/05/20 13:13:07;;;;;;;;;;;;;;;;;;5045227;28;19925;-69
2021/05/20 13:15:33;;;;;;;;;;;;;;;;;;5042967;28;20590;-70
2021/05/20 13:18:16;;;;;;;;;;;;;;;;;;5040975;28;19925;-72
2021/05/20 13:23:28;;;;;;;;;;;;;;;;;;5041568;28;19924;-71
2021/05/20 13:25:58;;;;;;;;;;;;;;;;;;5043432;28;19925;-71
2021/05/20 13:28:25;;;;;;;;;;;;;;;;;;5040792;28;20020;-69
2021/05/20 13:30:54;;;;;;;;;;;;;;;;;;5040977;28;19936;-72
2021/05/20 13:33:26;;;;;;;;;;;;;;;;;;5042712;28;20012;-70
2021/05/20 13:35:53;;;;;;;;;;;;;;;;;;5040051;28;19971;-71
2021/05/20 13:38:19;;;;;;;;;;;;;;;;;;5040242;28;19929;-69
2021/05/20 13:40:46;;;;;;;;;;;;;;;;;;5040788;28;19932;-70
2021/05/20 13:43:13;;;;;;;;;;;;;;;;;;5045589;28;19932;-72
2021/05/20 13:45:39;;;;;;;;;;;;;;;;;;5041967;28;19929;-70
2021/05/20 13:48:06;;;;;;;;;;;;;;;;;;5038869;28;19925;-69
2021/05/20 13:50:32;;;;;;;;;;;;;;;;;;5041805;28;19932;-71
2021/05/20 13:53:00;;;;;;;;;;;;;;;;;;5043220;28;20002;-72
2021/05/20 13:55:27;;;;;;;;;;;;;;;;;;5042073;28;19937;-69
2021/05/20 13:57:54;;;;;;;;;;;;;;;;;;5044130;28;19939;-72
2021/05/20 14:00:24;;;;;;;;;;;;;;;;;;5035539;28;19928;-68
2021/05/20 14:02:51;;;;;;;;;;;;;;;;;;5045180;28;19929;-69
2021/05/20 14:05:18;;;;;;;;;;;;;;;;;;5044073;28;19925;-71
2021/05/20 14:07:44;;;;;;;;;;;;;;;;;;5042781;28;19924;-71
2021/05/20 14:10:11;;;;;;;;;;;;;;;;;;5040436;28;20023;-69
2021/05/20 14:12:37;;;;;;;;;;;;;;;;;;5044445;28;19929;-69
2021/05/20 14:15:04;;;;;;;;;;;;;;;;;;5042959;28;19925;-72
2021/05/20 14:17:30;;;;;;;;;;;;;;;;;;5044603;28;19925;-72
2021/05/20 14:19:58;;;;;;;;;;;;;;;;;;5047285;28;20374;-70
2021/05/20 14:22:25;;;;;;;;;;;;;;;;;;5042521;28;19924;-71
2021/05/20 14:24:52;;;;;;;;;;;;;;;;;;5045893;28;19990;-70
2021/05/20 14:27:19;;;;;;;;;;;;;;;;;;5043499;28;20074;-72
2021/05/20 14:29:46;;;;;;;;;;;;;;;;;;5043469;28;19931;-69
2021/05/20 14:32:13;;;;;;;;;;;;;;;;;;5042437;28;19932;-68
2021/05/20 14:34:42;;;;;;;;;;;;;;;;;;5041147;28;19933;-70
2021/05/20 14:37:08;;;;;;;;;;;;;;;;;;5046614;28;20460;-72
2021/05/20 14:39:35;;;;;;;;;;;;;;;;;;5047843;28;19925;-69
2021/05/20 14:42:02;;;;;;;;;;;;;;;;;;5046509;28;19925;-73
2021/05/20 14:44:29;;;;;;;;;;;;;;;;;;5044687;28;19954;-71
2021/05/20 14:46:55;;;;;;;;;;;;;;;;;;5046124;28;20367;-70
2021/05/20 14:49:37;;;;;;;;;;;;;;;;;;5043863;28;20476;-72
2021/05/20 14:52:04;;;;;;;;;;;;;;;;;;5044811;28;19991;-69
2021/05/20 14:54:33;;;;;;;;;;;;;;;;;;5046117;28;19932;-71
2021/05/20 14:57:07;;;;;;;;;;;;;;;;;;5046642;28;20289;-70
2021/05/20 15:05:08;;;;;;;;;;;;;;;;;;5044967;28;19959;-73
2021/05/20 15:07:35;;;;;;;;;;;;;;;;;;5043036;28;19925;-69
2021/05/20 15:10:10;;;;;;;;;;;;;;;;;;5041670;28;19929;-71
2021/05/20 15:12:43;;;;;;;;;;;;;;;;;;5043754;28;19926;-70
2021/05/20 15:15:12;;;;;;;;;;;;;;;;;;5050715;28;19979;-69
2021/05/20 15:17:43;;;;;;;;;;;;;;;;;;5047553;28;19926;-69
2021/05/20 15:20:09;;;;;;;;;;;;;;;;;;5043935;28;20719;-70
2021/05/20 15:22:36;;;;;;;;;;;;;;;;;;5046233;28;19972;-70
2021/05/20 15:25:02;;;;;;;;;;;;;;;;;;5046817;28;20027;-72
2021/05/20 15:27:29;;;;;;;;;;;;;;;;;;5045140;28;19925;-69
2021/05/20 15:32:27;;;;;;;;;;;;;;;;;;5083152;28;19981;-67
2021/05/20 15:34:54;;;;;;;;;;;;;;;;;;5080618;28;19955;-67
2021/05/20 15:37:20;;;;;;;;;;;;;;;;;;5085607;28;19971;-67
2021/05/20 15:39:47;;;;;;;;;;;;;;;;;;5084969;28;19925;-67
2021/05/20 15:42:13;;;;;;;;;;;;;;;;;;5080942;28;19928;-67
2021/05/20 15:44:40;;;;;;;;;;;;;;;;;;5079783;28;19928;-67
2021/05/20 15:47:11;;;;;;;;;;;;;;;;;;5073674;28;20224;-67
2021/05/20 15:52:22;;;;;;;;;;;;;;;;;;5081734;28;20338;-68
2021/05/20 15:54:49;;;;;;;;;;;;;;;;;;5079466;28;19928;-68
2021/05/20 15:57:16;;;;;;;;;;;;;;;;;;5081765;28;20431;-67
2021/05/20 15:59:42;;;;;;;;;;;;;;;;;;5085162;28;20387;-67
2021/05/20 16:02:09;;;;;;;;;;;;;;;;;;5081329;28;19924;-68
2021/05/20 16:04:35;;;;;;;;;;;;;;;;;;5078695;28;19924;-68
2021/05/20 16:07:06;;;;;;;;;;;;;;;;;;5082624;28;19928;-68
2021/05/20 16:09:40;;;;;;;;;;;;;;;;;;5080822;28;20426;-67
2021/05/20 16:12:14;;;;;;;;;;;;;;;;;;5074992;28;19928;-67
2021/05/20 16:14:49;;;;;;;;;;;;;;;;;;5077777;28;19924;-67
2021/05/20 16:17:16;;;;;;;;;;;;;;;;;;5084334;28;19940;-66
2021/05/20 16:19:42;;;;;;;;;;;;;;;;;;5084452;28;19974;-66
2021/05/20 16:22:10;;;;;;;;;;;;;;;;;;5086598;28;19924;-66
2021/05/20 16:35:42;;;;;;;;;;;;;;;;;;5079007;28;20053;-66
2021/05/20 16:38:09;;;;;;;;;;;;;;;;;;5082384;28;19928;-67
2021/05/20 16:40:40;;;;;;;;;;;;;;;;;;5076470;28;19924;-66
2021/05/20 16:43:06;;;;;;;;;;;;;;;;;;5080623;28;19988;-66
2021/05/20 16:45:33;;;;;;;;;;;;;;;;;;5081474;28;19936;-66
2021/05/20 16:48:00;;;;;;;;;;;;;;;;;;5073770;28;19932;-66
2021/05/20 16:50:26;;;;;;;;;;;;;;;;;;5079911;28;19924;-68
2021/05/20 16:52:53;;;;;;;;;;;;;;;;;;5080398;28;19999;-67
2021/05/20 16:55:23;;;;;;;;;;;;;;;;;;5075536;28;19977;-67
2021/05/20 16:57:59;;;;;;;;;;;;;;;;;;5076887;28;19924;-67
2021/05/20 17:00:26;;;;;;;;;;;;;;;;;;5077196;28;19924;-66
2021/05/20 17:02:52;;;;;;;;;;;;;;;;;;5075218;28;20002;-67
2021/05/20 17:05:20;;;;;;;;;;;;;;;;;;5071495;28;20339;-67
2021/05/20 17:07:46;;;;;;;;;;;;;;;;;;5073464;28;19932;-66
2021/05/20 17:10:14;;;;;;;;;;;;;;;;;;5070765;28;20579;-68